Time;durP1;ratioP1;P1;durP2;ratioP2;P2;SDS_P1;SDS_P2;PMS_P1;PMS_P2;Temp;Humidity;BMP_temperature;BMP_pressure;BME280_temperature;BME280_humidity;BME280_pressure;Samples;Min_cycle;Max_cycle;Signal;HPM_P1;HPM_P2
2023/10/18 00:04:00;;;;;;;14.45;7.32;;;;;;;18.28;100.00;101166.38;20975857;28;20049;-76
2023/10/18 00:14:23;;;;;;;14.77;7.88;;;;;;;18.32;100.00;101156.50;20977077;28;20048;-76
2023/10/18 00:24:47;;;;;;;11.88;5.60;;;;;;;18.18;100.00;101153.97;20990891;28;20790;-75
2023/10/18 00:35:18;;;;;;;12.13;6.28;;;;;;;18.35;100.00;101160.97;20964698;28;20053;-75
2023/10/18 00:45:47;;;;;;;12.93;7.03;;;;;;;18.38;100.00;101160.94;20964471;28;20471;-75
2023/10/18 00:56:12;;;;;;;14.60;6.23;;;;;;;18.30;100.00;101150.31;20967598;28;20049;-76
2023/10/18 01:06:37;;;;;;;10.82;4.97;;;;;;;18.11;100.00;101149.63;20956285;28;20072;-75
2023/10/18 01:17:01;;;;;;;11.02;5.20;;;;;;;18.06;100.00;101147.84;20957311;28;20090;-76
2023/10/18 01:27:25;;;;;;;13.05;4.97;;;;;;;17.83;100.00;101166.75;20971267;28;20052;-76
2023/10/18 01:37:49;;;;;;;8.98;4.47;;;;;;;17.72;100.00;101184.66;20955305;28;20049;-75
2023/10/18 01:48:18;;;;;;;11.07;6.88;;;;;;;17.93;100.00;101181.81;20969965;28;20068;-75
2023/10/18 01:58:40;;;;;;;12.10;5.13;;;;;;;17.80;100.00;101197.03;20970574;28;20053;-75
2023/10/18 02:09:10;;;;;;;13.30;5.63;;;;;;;17.63;100.00;101206.97;20956272;28;20045;-76
2023/10/18 02:19:32;;;;;;;12.48;5.65;;;;;;;17.68;100.00;101207.81;20948904;28;20048;-75
2023/10/18 02:29:57;;;;;;;10.93;5.07;;;;;;;17.66;100.00;101222.94;20967288;28;20051;-75
2023/10/18 02:40:29;;;;;;;11.18;5.00;;;;;;;17.56;100.00;101236.34;20963253;28;20059;-75
2023/10/18 02:50:57;;;;;;;11.75;6.63;;;;;;;17.60;100.00;101241.63;20967020;28;20029;-76
2023/10/18 03:01:20;;;;;;;13.77;6.70;;;;;;;17.59;100.00;101233.66;20965222;28;20566;-76
2023/10/18 03:11:44;;;;;;;11.93;6.10;;;;;;;17.60;100.00;101214.94;20949469;28;20489;-75
2023/10/18 03:22:06;;;;;;;11.73;5.70;;;;;;;17.63;100.00;101193.59;20964517;28;20086;-76
2023/10/18 03:32:30;;;;;;;13.02;5.70;;;;;;;17.69;100.00;101176.66;20946658;28;20047;-76
2023/10/18 03:42:54;;;;;;;14.00;5.65;;;;;;;17.67;100.00;101168.66;20947625;28;20500;-76
2023/10/18 03:53:18;;;;;;;11.43;5.65;;;;;;;17.85;100.00;101135.59;20950582;28;20048;-76
2023/10/18 04:03:41;;;;;;;14.15;5.57;;;;;;;17.90;100.00;101105.25;20961916;28;20067;-75
2023/10/18 04:14:05;;;;;;;13.25;6.07;;;;;;;17.87;100.00;101099.03;20976444;28;20044;-77
2023/10/18 04:24:28;;;;;;;12.35;5.70;;;;;;;18.12;100.00;101089.00;20972428;28;20060;-76
2023/10/18 04:34:52;;;;;;;10.25;4.22;;;;;;;18.31;100.00;101069.22;20975587;28;20072;-77
2023/10/18 04:45:18;;;;;;;10.55;4.22;;;;;;;18.67;100.00;101054.56;20963534;28;20060;-77
2023/10/18 04:55:42;;;;;;;8.48;3.78;;;;;;;18.94;100.00;101069.34;20975566;28;20063;-76
2023/10/18 05:06:06;;;;;;;8.63;3.88;;;;;;;18.93;100.00;101068.47;20953324;28;20554;-77
2023/10/18 05:16:30;;;;;;;11.23;3.97;;;;;;;19.09;100.00;101069.16;20971506;28;20049;-77
2023/10/18 05:26:55;;;;;;;7.55;3.58;;;;;;;19.45;100.00;101081.09;20955783;28;20052;-75
2023/10/18 05:37:22;;;;;;;7.82;3.13;;;;;;;19.99;100.00;101095.41;20957928;28;20052;-75
2023/10/18 05:47:54;;;;;;;7.32;2.92;;;;;;;20.76;100.00;101092.13;20956699;28;20067;-75
2023/10/18 05:58:25;;;;;;;7.00;2.78;;;;;;;21.25;100.00;101097.38;20928049;28;20052;-75
2023/10/18 06:08:48;;;;;;;11.35;3.50;;;;;;;21.68;100.00;101090.03;20965095;28;20403;-75
2023/10/18 06:19:13;;;;;;;9.07;3.30;;;;;;;22.26;100.00;101081.34;20867192;28;20610;-75
2023/10/18 06:29:36;;;;;;;8.88;3.03;;;;;;;23.59;98.09;101101.66;20850600;28;20053;-76
2023/10/18 06:40:01;;;;;;;10.88;2.50;;;;;;;24.65;86.66;101102.50;20896488;28;20500;-76
2023/10/18 06:50:28;;;;;;;6.47;2.20;;;;;;;24.89;83.63;101097.06;20897230;28;20501;-77
2023/10/18 07:00:53;;;;;;;11.30;3.17;;;;;;;24.91;77.35;101107.81;20872693;28;20040;-76
2023/10/18 07:11:17;;;;;;;15.80;3.25;;;;;;;25.05;71.15;101120.81;20878827;28;20055;-76
2023/10/18 07:21:42;;;;;;;10.80;2.63;;;;;;;26.35;57.17;101119.97;20964702;28;20052;-76
2023/10/18 07:32:12;;;;;;;9.60;1.87;;;;;;;27.24;50.05;101123.13;20944243;28;20040;-77
2023/10/18 07:42:41;;;;;;;6.65;1.92;;;;;;;27.93;42.81;101120.63;20965893;28;20086;-77
2023/10/18 07:53:05;;;;;;;8.85;1.88;;;;;;;28.48;41.16;101129.56;20969408;28;20616;-77
2023/10/18 08:03:29;;;;;;;5.57;1.88;;;;;;;28.92;38.92;101135.34;20965838;28;20052;-77
2023/10/18 08:13:54;;;;;;;7.87;2.30;;;;;;;29.37;38.49;101126.50;20966238;28;20037;-76
2023/10/18 08:24:20;;;;;;;6.35;2.05;;;;;;;29.45;37.29;101136.97;20964842;28;20054;-76
2023/10/18 08:34:44;;;;;;;7.05;2.05;;;;;;;29.57;36.66;101137.13;20948818;28;20052;-76
2023/10/18 08:45:19;;;;;;;8.45;2.42;;;;;;;29.98;36.56;101125.72;20964746;28;20059;-76
2023/10/18 08:55:45;;;;;;;9.88;2.22;;;;;;;30.58;36.61;101129.34;20975709;28;20132;-76
2023/10/18 09:06:22;;;;;;;8.43;2.00;;;;;;;30.72;35.23;101129.34;20962043;28;20105;-76
2023/10/18 09:16:46;;;;;;;7.10;1.83;;;;;;;31.08;35.41;101126.19;20909661;28;20056;-76
2023/10/18 09:27:11;;;;;;;9.47;2.03;;;;;;;31.29;34.37;101113.00;20953937;28;20052;-75
2023/10/18 09:37:36;;;;;;;11.98;2.30;;;;;;;31.76;33.11;101107.16;20972586;28;20060;-75
2023/10/18 09:48:01;;;;;;;9.47;2.17;;;;;;;31.07;33.14;101104.44;20958875;28;20078;-74
2023/10/18 09:58:24;;;;;;;8.57;1.90;;;;;;;31.43;33.01;101087.53;20957708;28;20048;-76
2023/10/18 10:08:51;;;;;;;7.22;2.10;;;;;;;31.73;32.81;101074.59;20968016;28;20136;-74
2023/10/18 10:19:19;;;;;;;7.90;2.17;;;;;;;31.94;32.58;101067.66;20967865;28;20417;-76
2023/10/18 10:29:42;;;;;;;6.00;2.15;;;;;;;31.76;31.87;101055.28;20969120;28;20048;-75
2023/10/18 10:40:19;;;;;;;7.20;1.80;;;;;;;31.72;31.73;101055.56;20951332;28;20114;-75
2023/10/18 10:50:45;;;;;;;7.03;1.95;;;;;;;31.75;32.96;101041.72;20948062;28;20140;-74
2023/10/18 11:01:12;;;;;;;8.63;2.10;;;;;;;31.71;33.37;101015.56;20951664;28;20092;-75
2023/10/18 11:11:36;;;;;;;6.95;2.20;;;;;;;31.09;34.59;101024.25;20936775;28;20048;-74
2023/10/18 11:21:59;;;;;;;7.97;2.55;;;;;;;30.71;34.72;101024.00;20953330;28;20063;-77
2023/10/18 11:32:28;;;;;;;9.32;3.05;;;;;;;30.67;35.96;101027.00;20978055;28;20052;-76
2023/10/18 11:42:55;;;;;;;10.10;2.92;;;;;;;30.43;38.31;101032.13;20955039;28;20548;-76
2023/10/18 11:53:23;;;;;;;13.90;3.17;;;;;;;30.39;41.27;101027.84;20932434;28;20497;-77
2023/10/18 12:03:48;;;;;;;12.43;2.78;;;;;;;30.30;43.14;101034.75;20898500;28;20067;-77
2023/10/18 12:14:12;;;;;;;12.30;3.40;;;;;;;30.19;45.52;101044.56;20904300;28;20194;-76
2023/10/18 12:24:34;;;;;;;15.23;2.88;;;;;;;30.10;45.49;101044.16;20961278;28;20048;-77
2023/10/18 12:35:06;;;;;;;12.77;3.08;;;;;;;29.88;47.66;101059.97;20948547;28;20061;-76
2023/10/18 12:45:29;;;;;;;14.25;3.67;;;;;;;29.53;51.86;101067.53;20944033;28;20074;-76
2023/10/18 12:55:57;;;;;;;8.50;2.40;;;;;;;29.30;52.09;101060.66;20901772;28;20176;-76
2023/10/18 13:06:20;;;;;;;12.18;3.22;;;;;;;29.08;56.16;101073.72;20914755;28;20052;-77
2023/10/18 13:16:52;;;;;;;11.60;3.72;;;;;;;28.81;61.93;101078.00;20908861;28;20386;-76
2023/10/18 13:27:18;;;;;;;16.65;3.25;;;;;;;28.51;68.69;101092.22;20928901;28;20045;-77
2023/10/18 13:37:43;;;;;;;14.60;3.47;;;;;;;28.41;73.77;101082.84;20928058;28;20504;-78
2023/10/18 13:48:07;;;;;;;18.75;3.70;;;;;;;28.39;80.79;101092.00;20931462;28;20064;-77
2023/10/18 13:58:34;;;;;;;14.15;4.35;;;;;;;27.93;94.16;101112.50;20916738;28;20583;-77
2023/10/18 14:08:58;;;;;;;16.30;4.50;;;;;;;27.20;100.00;101102.53;20947927;28;20043;-78
2023/10/18 14:19:24;;;;;;;16.23;4.68;;;;;;;26.95;100.00;101089.25;20940491;28;20424;-76
2023/10/18 14:29:47;;;;;;;13.68;4.78;;;;;;;26.87;100.00;101110.38;20954140;28;20095;-75
2023/10/18 14:40:12;;;;;;;16.42;4.30;;;;;;;26.67;100.00;101102.28;20968361;28;20052;-76
2023/10/18 14:50:35;;;;;;;18.13;4.55;;;;;;;26.68;100.00;101115.75;20968596;28;20048;-75
2023/10/18 15:00:59;;;;;;;21.83;6.10;;;;;;;26.43;100.00;101110.56;20967591;28;20040;-76
2023/10/18 15:11:21;;;;;;;18.83;5.63;;;;;;;26.31;100.00;101112.94;20964205;28;20055;-76
2023/10/18 15:21:46;;;;;;;20.25;5.60;;;;;;;26.19;100.00;101115.19;20953295;28;20449;-75
2023/10/18 15:32:09;;;;;;;22.13;5.10;;;;;;;25.94;100.00;101109.06;20965710;28;20061;-75
2023/10/18 15:42:33;;;;;;;24.27;5.65;;;;;;;25.92;100.00;101110.97;20973431;28;20135;-75
2023/10/18 15:52:55;;;;;;;22.05;5.00;;;;;;;25.92;100.00;101118.22;20960139;28;20105;-75
2023/10/18 16:03:19;;;;;;;22.35;5.47;;;;;;;25.87;100.00;101112.97;20946217;28;20044;-77
2023/10/18 16:13:41;;;;;;;24.50;5.15;;;;;;;25.79;100.00;101131.38;20955816;28;20044;-76
2023/10/18 16:24:07;;;;;;;22.25;5.85;;;;;;;25.68;100.00;101137.22;20926179;28;20489;-76
2023/10/18 16:34:29;;;;;;;18.75;4.75;;;;;;;25.50;100.00;101145.16;20945769;28;20045;-76
2023/10/18 16:44:54;;;;;;;19.77;4.70;;;;;;;25.18;100.00;101146.41;20958380;28;20098;-77
2023/10/18 16:55:17;;;;;;;17.02;3.58;;;;;;;25.04;100.00;101146.94;20974865;28;20471;-77
2023/10/18 17:05:42;;;;;;;11.13;3.55;;;;;;;24.86;100.00;101153.00;20906269;28;20037;-77
2023/10/18 17:16:06;;;;;;;11.40;3.88;;;;;;;24.71;100.00;101143.66;20922890;28;20048;-77
2023/10/18 17:26:30;;;;;;;11.93;3.33;;;;;;;24.45;100.00;101146.41;20909334;28;20052;-77
2023/10/18 17:36:53;;;;;;;11.60;3.45;;;;;;;24.22;100.00;101142.69;20895138;28;20148;-76
2023/10/18 17:47:17;;;;;;;12.13;3.80;;;;;;;24.03;100.00;101144.22;20949872;28;20106;-78
2023/10/18 17:57:40;;;;;;;10.52;3.28;;;;;;;23.84;100.00;101149.34;20950915;28;20395;-76
2023/10/18 18:08:10;;;;;;;11.45;3.30;;;;;;;23.69;100.00;101147.19;21028010;28;20048;-76
2023/10/18 18:18:32;;;;;;;11.77;4.10;;;;;;;23.58;100.00;101164.59;20965222;28;20382;-76
2023/10/18 18:28:59;;;;;;;17.90;5.07;;;;;;;23.53;100.00;101172.84;20952801;28;20048;-76
2023/10/18 18:39:22;;;;;;;16.08;4.00;;;;;;;23.38;100.00;101175.97;20973660;28;20080;-77
2023/10/18 18:49:47;;;;;;;15.27;4.20;;;;;;;23.22;100.00;101175.56;20944753;28;20610;-77
2023/10/18 19:00:15;;;;;;;16.20;4.40;;;;;;;23.23;100.00;101200.69;20962513;28;20045;-77
2023/10/18 19:10:40;;;;;;;11.73;3.67;;;;;;;23.37;100.00;101199.34;20958779;28;20102;-76
2023/10/18 19:21:09;;;;;;;17.30;4.40;;;;;;;23.19;100.00;101207.97;20948924;28;20044;-76
2023/10/18 19:31:33;;;;;;;13.55;4.32;;;;;;;23.29;100.00;101214.00;20936030;28;20131;-76
2023/10/18 19:41:55;;;;;;;10.57;3.50;;;;;;;23.39;100.00;101210.06;20887350;28;20057;-75
2023/10/18 19:52:20;;;;;;;12.90;3.58;;;;;;;23.12;100.00;101206.38;20983397;28;20049;-76
2023/10/18 20:02:44;;;;;;;12.07;3.88;;;;;;;23.22;100.00;101225.88;20967599;28;20053;-75
2023/10/18 20:13:08;;;;;;;15.40;4.38;;;;;;;23.24;100.00;101229.38;20976318;28;20140;-75
2023/10/18 20:23:31;;;;;;;11.68;3.85;;;;;;;23.23;100.00;101219.56;20965678;28;20139;-75
2023/10/18 20:33:55;;;;;;;11.60;3.38;;;;;;;23.12;100.00;101222.53;20978549;28;20485;-75
2023/10/18 20:44:19;;;;;;;13.88;3.92;;;;;;;23.27;100.00;101222.09;20977847;28;20053;-76
2023/10/18 20:54:45;;;;;;;15.65;4.30;;;;;;;23.34;100.00;101222.81;20897703;28;20405;-76
2023/10/18 21:05:09;;;;;;;11.75;4.45;;;;;;;23.37;100.00;101223.59;20937309;28;20404;-77
2023/10/18 21:15:34;;;;;;;17.55;4.10;;;;;;;23.27;100.00;101226.63;20973529;28;20151;-76
2023/10/18 21:25:56;;;;;;;11.00;4.10;;;;;;;23.30;100.00;101232.78;20971408;28;20056;-76
2023/10/18 21:36:20;;;;;;;13.63;4.10;;;;;;;23.34;100.00;101215.63;20973974;28;20098;-76
2023/10/18 21:46:43;;;;;;;11.07;3.95;;;;;;;23.33;100.00;101215.66;20956552;28;20041;-75
2023/10/18 21:57:08;;;;;;;11.80;3.85;;;;;;;23.27;100.00;101207.75;20986083;28;20055;-76
2023/10/18 22:07:32;;;;;;;11.00;4.63;;;;;;;23.27;100.00;101221.22;20972018;28;20137;-75
2023/10/18 22:17:56;;;;;;;11.40;4.90;;;;;;;23.24;100.00;101224.00;20955631;28;20071;-75
2023/10/18 22:28:19;;;;;;;9.15;3.95;;;;;;;23.21;100.00;101238.47;20953636;28;20515;-75
2023/10/18 22:38:44;;;;;;;10.95;4.90;;;;;;;23.21;100.00;101227.69;20953221;28;20087;-75
2023/10/18 22:49:11;;;;;;;16.77;4.75;;;;;;;23.19;100.00;101234.03;20968961;28;20044;-78
2023/10/18 22:59:37;;;;;;;9.45;4.47;;;;;;;23.09;100.00;101233.44;20956759;28;20040;-77
2023/10/18 23:10:08;;;;;;;8.77;3.92;;;;;;;23.02;100.00;101234.53;20962663;28;20052;-76
2023/10/18 23:20:35;;;;;;;7.93;4.07;;;;;;;22.75;100.00;101233.47;20945424;28;20052;-75
2023/10/18 23:31:11;;;;;;;9.85;4.15;;;;;;;22.73;100.00;101238.00;20945548;28;20660;-76
2023/10/18 23:41:41;;;;;;;9.50;4.00;;;;;;;22.74;100.00;101231.69;20964114;28;20583;-77
2023/10/18 23:52:30;;;;;;;8.20;3.80;;;;;;;22.72;100.00;101232.63;20958400;28;20047;-76
